createdAt,value
2022-10-25T05:10:51.819Z,2.20
2022-10-25T05:13:21.595Z,2.50
2022-10-25T05:15:59.490Z,2.27
2022-10-25T05:18:27.949Z,2.50
2022-10-25T05:20:56.946Z,2.20
2022-10-25T05:23:25.958Z,3.03
2022-10-25T05:26:02.371Z,2.60
2022-10-25T05:28:32.228Z,2.00
2022-10-25T05:31:04.553Z,2.70
2022-10-25T05:33:33.332Z,2.63
2022-10-25T05:36:02.327Z,3.03
2022-10-25T05:38:34.219Z,2.07
2022-10-25T05:41:06.847Z,2.67
2022-10-25T05:43:36.412Z,2.20
2022-10-25T05:46:06.855Z,2.50
2022-10-25T05:48:36.696Z,2.57
2022-10-25T05:51:32.125Z,2.87
2022-10-25T05:54:02.265Z,2.40
2022-10-25T05:56:31.574Z,2.50
2022-10-25T05:59:03.893Z,2.87
2022-10-25T06:01:32.299Z,2.70
2022-10-25T06:04:05.228Z,3.20
2022-10-25T06:06:33.507Z,2.50
2022-10-25T06:09:02.488Z,3.27
2022-10-25T06:11:31.391Z,2.93
2022-10-25T06:14:00.936Z,2.75
2022-10-25T06:16:29.463Z,3.00
2022-10-25T06:18:57.949Z,2.83
2022-10-25T06:21:27.976Z,3.17
2022-10-25T06:23:57.031Z,2.87
2022-10-25T06:26:26.845Z,3.27
2022-10-25T06:28:56.730Z,2.47
2022-10-25T06:31:26.706Z,2.30
2022-10-25T06:33:54.943Z,2.83
2022-10-25T06:36:24.894Z,2.20
2022-10-25T06:38:53.593Z,2.60
2022-10-25T06:41:23.243Z,2.70
2022-10-25T06:43:52.131Z,2.53
2022-10-25T06:46:23.284Z,2.60
2022-10-25T06:48:54.342Z,2.70
2022-10-25T06:51:23.529Z,2.77
2022-10-25T06:53:56.144Z,2.70
2022-10-25T06:56:56.842Z,2.50
2022-10-25T07:04:15.924Z,2.63
2022-10-25T07:06:44.124Z,2.27
2022-10-25T07:09:12.561Z,2.43
2022-10-25T07:11:41.106Z,2.57
2022-10-25T07:14:17.287Z,2.27
2022-10-25T07:16:46.696Z,2.23
2022-10-25T07:19:16.892Z,2.10
2022-10-25T07:21:46.333Z,2.50
2022-10-25T07:24:15.139Z,2.43
2022-10-25T07:26:43.328Z,2.57
2022-10-25T07:29:11.869Z,2.10
2022-10-25T07:31:43.246Z,2.17
2022-10-25T07:34:13.720Z,2.17
2022-10-25T07:36:43.482Z,2.00
2022-10-25T07:39:12.091Z,2.43
2022-10-25T07:41:40.372Z,2.33
2022-10-25T07:44:13.033Z,2.50
2022-10-25T07:46:44.450Z,3.13
2022-10-25T07:49:12.627Z,3.10
2022-10-25T07:51:42.395Z,2.63
2022-10-25T07:54:11.023Z,2.73
2022-10-25T07:56:39.237Z,2.87
2022-10-25T07:59:07.435Z,2.13
2022-10-25T08:01:36.758Z,2.50
2022-10-25T08:04:08.119Z,2.27
2022-10-25T08:06:36.491Z,2.60
2022-10-25T08:09:14.898Z,2.47
2022-10-25T08:11:48.728Z,3.13
2022-10-25T08:14:17.157Z,3.20
2022-10-25T08:16:45.950Z,2.70
2022-10-25T08:19:14.155Z,2.47
2022-10-25T08:21:42.331Z,2.47
2022-10-25T08:24:12.920Z,2.10
2022-10-25T08:27:38.745Z,2.30
2022-10-25T08:30:25.003Z,2.17
2022-10-25T09:55:04.382Z,2.10
2022-10-25T09:57:32.631Z,2.33
2022-10-25T10:00:00.778Z,1.90
2022-10-25T10:02:29.303Z,2.38
2022-10-25T10:04:57.707Z,1.70
2022-10-25T10:07:30.238Z,1.90
2022-10-25T10:10:02.900Z,2.33
2022-10-25T10:12:37.852Z,1.80
2022-10-25T10:15:13.048Z,1.87
2022-10-25T10:17:41.270Z,2.10
2022-10-25T10:20:13.964Z,2.20
2022-10-25T10:25:22.714Z,2.17
2022-10-25T10:27:53.546Z,1.97
2022-10-25T10:30:28.764Z,2.37
2022-10-25T10:33:00.274Z,2.30
2022-10-25T10:35:31.757Z,1.90
2022-10-25T10:38:23.592Z,1.83
2022-10-25T10:40:55.873Z,2.00
2022-10-25T10:43:28.031Z,2.00
2022-10-25T10:46:03.329Z,2.13
2022-10-25T10:48:42.050Z,1.87
2022-10-25T10:51:43.132Z,2.33
2022-10-25T10:54:24.368Z,2.20
2022-10-25T10:56:59.615Z,2.42
2022-10-25T10:59:36.288Z,2.17
2022-10-25T11:02:25.342Z,2.10
2022-10-25T11:05:03.375Z,1.63
2022-10-25T11:07:34.526Z,1.90
2022-10-25T11:10:24.185Z,1.40
2022-10-25T11:13:18.673Z,1.60
2022-10-25T11:16:27.358Z,1.63
2022-10-25T11:19:20.200Z,1.70
2022-10-25T11:21:57.375Z,1.70
2022-10-25T11:25:01.000Z,1.70
2022-10-25T11:27:49.638Z,1.50
2022-10-25T11:30:35.747Z,2.07
2022-10-25T11:33:39.853Z,2.60
2022-10-25T11:36:19.295Z,2.23
2022-10-25T11:39:02.820Z,1.90
2022-10-25T11:41:40.387Z,1.70
2022-10-25T11:44:32.211Z,1.70
2022-10-25T11:47:10.418Z,1.90
2022-10-25T11:49:52.373Z,1.70
2022-10-25T11:52:46.178Z,1.80
2022-10-25T11:55:28.498Z,1.83
2022-10-25T11:58:09.517Z,1.90
2022-10-25T12:00:51.185Z,2.10
2022-10-25T12:03:33.134Z,2.00
2022-10-25T12:06:10.044Z,1.97
2022-10-25T12:08:48.355Z,1.90
2022-10-25T12:11:19.899Z,1.67
2022-10-25T12:13:51.873Z,1.90
2022-10-25T12:16:23.047Z,2.80
2022-10-25T12:18:59.887Z,1.73
2022-10-25T12:21:33.699Z,2.20
2022-10-25T12:24:03.057Z,2.10
2022-10-25T12:26:45.341Z,1.60
2022-10-25T12:29:36.264Z,1.90
2022-10-25T12:32:11.484Z,1.70
2022-10-25T12:34:44.200Z,1.60
2022-10-25T12:37:17.481Z,1.50
2022-10-25T12:39:47.539Z,1.70
2022-10-25T12:42:19.817Z,1.70
2022-10-25T12:45:27.374Z,1.80
2022-10-25T12:48:09.795Z,1.40
2022-10-25T12:51:04.163Z,1.50
2022-10-25T12:54:06.857Z,1.97
2022-10-25T12:56:47.866Z,2.17
2022-10-25T12:59:32.682Z,1.37
2022-10-25T13:02:18.490Z,1.80
2022-10-25T13:05:07.267Z,1.70
2022-10-25T13:07:38.766Z,1.50
2022-10-25T13:10:19.694Z,1.80
2022-10-25T13:13:00.826Z,1.40
2022-10-25T13:15:41.963Z,1.52
2022-10-25T13:18:28.679Z,1.83
2022-10-25T13:20:57.127Z,2.03
2022-10-25T13:24:00.767Z,1.80
2022-10-25T13:26:48.448Z,1.47
2022-10-25T13:30:00.775Z,1.50
2022-10-25T13:32:30.413Z,1.50
2022-10-25T13:34:59.075Z,1.00
2022-10-25T13:37:45.208Z,1.10
2022-10-25T13:40:26.931Z,1.07
2022-10-25T13:43:03.959Z,1.23
2022-10-25T13:45:38.696Z,1.20
2022-10-25T13:48:18.538Z,1.10
2022-10-25T13:50:50.378Z,1.08
2022-10-25T13:53:23.126Z,1.13
2022-10-25T13:56:00.858Z,1.60
2022-10-25T13:58:49.755Z,1.30
2022-10-25T14:01:57.373Z,1.30
2022-10-25T14:04:37.776Z,1.20
2022-10-25T14:07:44.026Z,1.20
2022-10-25T14:10:29.081Z,1.30
2022-10-25T14:13:09.892Z,1.40
2022-10-25T14:15:44.499Z,1.10
2022-10-25T14:18:18.695Z,1.43
2022-10-25T14:20:48.921Z,1.63
2022-10-25T14:23:21.593Z,1.20
2022-10-25T14:25:56.254Z,1.00
2022-10-25T14:28:28.399Z,1.10
2022-10-25T14:31:00.888Z,1.35
2022-10-25T14:33:31.329Z,1.00
2022-10-25T14:36:09.782Z,0.97
2022-10-25T14:38:51.571Z,1.17
2022-10-25T14:41:24.218Z,1.00
2022-10-25T14:43:53.781Z,1.23
2022-10-25T14:46:25.023Z,0.90
2022-10-25T14:48:57.389Z,0.83
2022-10-25T14:51:28.281Z,1.00
2022-10-25T14:53:59.787Z,1.00
2022-10-25T14:56:31.303Z,0.70
2022-10-25T14:59:01.910Z,0.70
2022-10-25T15:01:30.290Z,1.30
2022-10-25T15:04:00.855Z,1.13
2022-10-25T15:06:33.438Z,0.90
2022-10-25T15:09:37.399Z,1.50
2022-10-25T15:12:21.060Z,1.20
2022-10-25T15:14:50.760Z,1.00
2022-10-25T15:17:29.770Z,0.88
2022-10-25T15:19:59.897Z,0.90
2022-10-25T15:22:33.028Z,0.90
2022-10-25T15:25:01.254Z,1.30
2022-10-25T15:27:35.297Z,0.80
2022-10-25T15:30:05.866Z,1.10
2022-10-25T15:32:34.859Z,1.07
2022-10-25T15:35:03.918Z,1.27
2022-10-25T15:37:32.329Z,1.13
2022-10-25T15:40:01.139Z,0.80
2022-10-25T15:42:29.305Z,1.00
2022-10-25T15:44:57.796Z,1.20
2022-10-25T15:47:34.164Z,1.07
2022-10-25T15:50:05.272Z,1.20
2022-10-25T15:52:33.439Z,1.77
2022-10-25T15:55:01.654Z,1.00
2022-10-25T15:57:29.755Z,1.20
2022-10-25T15:59:57.917Z,1.30
2022-10-25T16:02:28.623Z,1.03
2022-10-25T16:04:58.249Z,1.10
2022-10-25T16:07:26.452Z,1.10
2022-10-25T16:09:54.603Z,1.70
2022-10-25T16:12:27.259Z,1.23
2022-10-25T16:14:55.464Z,1.47
2022-10-25T16:17:23.643Z,1.30
2022-10-25T16:19:51.803Z,1.10
2022-10-25T16:22:21.301Z,1.40
2022-10-25T16:24:49.486Z,1.10
2022-10-25T16:27:17.693Z,1.07
2022-10-25T16:29:47.056Z,1.53
2022-10-25T16:32:15.282Z,1.53
2022-10-25T16:34:46.062Z,1.40
2022-10-25T16:37:19.139Z,1.20
2022-10-25T16:39:56.747Z,1.17
2022-10-25T16:42:29.781Z,1.40
2022-10-25T16:44:58.607Z,1.70
2022-10-25T16:47:29.911Z,1.47
2022-10-25T16:49:58.072Z,1.20
2022-10-25T17:08:17.473Z,1.57
2022-10-25T17:12:03.801Z,1.55
2022-10-25T17:14:32.214Z,1.57
2022-10-25T17:17:03.134Z,1.98
2022-10-25T18:52:24.986Z,2.03
2022-10-25T19:38:19.191Z,3.00
2022-10-25T19:41:31.420Z,2.77
2022-10-25T19:44:00.495Z,3.00
2022-10-25T19:46:33.039Z,3.60
2022-10-25T19:49:01.814Z,3.30
2022-10-25T19:51:30.660Z,3.57
2022-10-25T19:53:59.349Z,4.53
2022-10-25T19:56:29.590Z,4.60
2022-10-25T19:58:58.326Z,4.00
2022-10-25T20:01:33.547Z,3.60
2022-10-25T20:04:02.386Z,5.30
2022-10-25T20:06:39.694Z,3.73
2022-10-25T20:09:10.298Z,2.90
2022-10-25T20:11:40.549Z,3.70
2022-10-25T20:17:19.583Z,3.60
2022-10-25T20:19:48.554Z,3.00
2022-10-25T20:22:23.104Z,2.83
2022-10-25T20:24:57.905Z,2.87
2022-10-25T20:27:28.486Z,3.00
2022-10-25T20:29:59.181Z,2.90
2022-10-25T20:48:46.998Z,3.10
2022-10-25T20:51:16.978Z,2.60
